Time;durP1;ratioP1;P1;durP2;ratioP2;P2;SDS_P1;SDS_P2;PMS_P1;PMS_P2;Temp;Humidity;BMP_temperature;BMP_pressure;BME280_temperature;BME280_humidity;BME280_pressure;Samples;Min_cycle;Max_cycle;Signal;HPM_P1;HPM_P2
2024/03/11 00:00:21;;;;;;;;;;;10.20;94.00;;;;;;5072928;28;20007;-71
2024/03/11 00:02:49;;;;;;;;;;;10.20;93.90;;;;;;5073477;28;20376;-71
2024/03/11 00:05:15;;;;;;;;;;;10.20;94.10;;;;;;5071600;28;19954;-69
2024/03/11 00:07:42;;;;;;;;;;;10.20;94.10;;;;;;5071848;28;19920;-71
2024/03/11 00:10:12;;;;;;;;;;;10.30;93.30;;;;;;5072505;28;20006;-71
2024/03/11 00:12:57;;;;;;;;;;;10.30;93.80;;;;;;5071798;28;19916;-69
2024/03/11 00:15:23;;;;;;;;;;;10.30;93.50;;;;;;5072051;28;19982;-69
2024/03/11 00:17:50;;;;;;;;;;;10.30;93.50;;;;;;5071986;28;19916;-70
2024/03/11 00:20:16;;;;;;;;;;;10.30;93.40;;;;;;5054295;28;19929;-69
2024/03/11 00:22:42;;;;;;;;;;;10.30;93.40;;;;;;5072588;28;19917;-70
2024/03/11 00:25:09;;;;;;;;;;;10.40;93.50;;;;;;5072836;28;20015;-71
2024/03/11 00:30:20;;;;;;;;;;;10.40;93.00;;;;;;5070904;28;19944;-69
2024/03/11 00:32:46;;;;;;;;;;;10.40;93.30;;;;;;5072704;28;19924;-69
2024/03/11 00:35:13;;;;;;;;;;;10.40;92.80;;;;;;5071108;28;19925;-70
2024/03/11 00:37:40;;;;;;;;;;;10.40;92.80;;;;;;5071489;28;19964;-69
2024/03/11 00:40:08;;;;;;;;;;;10.20;92.50;;;;;;5070854;28;19920;-69
2024/03/11 00:42:40;;;;;;;;;;;10.30;93.00;;;;;;5072594;28;19962;-69
2024/03/11 00:45:07;;;;;;;;;;;10.20;93.30;;;;;;5055192;28;19921;-69
2024/03/11 00:47:34;;;;;;;;;;;10.20;93.20;;;;;;5071042;28;19927;-71
2024/03/11 00:50:06;;;;;;;;;;;10.20;93.40;;;;;;5072503;28;19927;-71
2024/03/11 00:52:33;;;;;;;;;;;10.20;93.40;;;;;;5070688;28;19932;-71
2024/03/11 00:54:59;;;;;;;;;;;10.20;92.60;;;;;;5070884;28;19947;-71
2024/03/11 00:57:25;;;;;;;;;;;10.20;93.20;;;;;;5070800;28;19926;-71
2024/03/11 00:59:51;;;;;;;;;;;10.30;93.10;;;;;;5070992;28;19921;-70
2024/03/11 01:02:17;;;;;;;;;;;10.30;92.80;;;;;;5070326;28;19944;-71
2024/03/11 01:04:45;;;;;;;;;;;10.30;92.50;;;;;;5072314;28;19926;-71
2024/03/11 01:07:10;;;;;;;;;;;10.30;92.10;;;;;;5054504;28;19916;-69
2024/03/11 01:09:36;;;;;;;;;;;10.20;91.90;;;;;;5072488;28;20254;-69
2024/03/11 01:12:02;;;;;;;;;;;10.10;91.60;;;;;;5071844;28;19921;-71
2024/03/11 01:14:30;;;;;;;;;;;10.10;91.90;;;;;;5072065;28;19928;-70
2024/03/11 01:16:55;;;;;;;;;;;10.10;91.90;;;;;;5054586;28;20430;-71
2024/03/11 01:19:22;;;;;;;;;;;10.10;91.80;;;;;;5072043;28;19925;-71
2024/03/11 01:21:48;;;;;;;;;;;10.10;91.50;;;;;;5070254;28;19925;-70
2024/03/11 01:24:16;;;;;;;;;;;10.00;91.20;;;;;;5070650;28;19930;-69
2024/03/11 01:26:47;;;;;;;;;;;10.00;90.90;;;;;;5070783;28;19917;-71
2024/03/11 01:29:31;;;;;;;;;;;10.00;91.40;;;;;;5070597;28;20296;-69
2024/03/11 01:31:57;;;;;;;;;;;10.00;91.40;;;;;;5071127;28;19920;-71
2024/03/11 01:34:23;;;;;;;;;;;10.00;91.30;;;;;;5070508;28;19930;-72
2024/03/11 01:36:49;;;;;;;;;;;10.00;91.10;;;;;;5071825;28;20262;-70
2024/03/11 01:39:25;;;;;;;;;;;10.00;91.20;;;;;;5071738;28;19924;-69
2024/03/11 01:41:55;;;;;;;;;;;10.00;91.30;;;;;;5071513;28;19928;-71
2024/03/11 01:44:21;;;;;;;;;;;10.00;91.00;;;;;;5070605;28;19924;-71
2024/03/11 01:46:50;;;;;;;;;;;10.00;91.20;;;;;;5070626;28;19916;-70
2024/03/11 01:49:16;;;;;;;;;;;10.00;90.90;;;;;;5071499;28;20510;-71
2024/03/11 01:51:44;;;;;;;;;;;10.10;90.90;;;;;;5071240;28;19920;-71
2024/03/11 01:54:10;;;;;;;;;;;10.10;90.70;;;;;;5071474;28;19920;-71
2024/03/11 01:56:37;;;;;;;;;;;10.10;90.60;;;;;;5070531;28;19916;-71
2024/03/11 01:59:03;;;;;;;;;;;10.10;90.40;;;;;;5070099;28;19917;-70
2024/03/11 02:01:30;;;;;;;;;;;10.10;90.40;;;;;;5069491;28;20520;-71
2024/03/11 02:03:56;;;;;;;;;;;10.20;90.10;;;;;;5070141;28;20016;-71
2024/03/11 02:06:24;;;;;;;;;;;10.20;89.90;;;;;;5070160;28;19920;-71
2024/03/11 02:08:50;;;;;;;;;;;10.10;90.00;;;;;;5071659;28;20426;-71
2024/03/11 02:11:17;;;;;;;;;;;10.20;89.30;;;;;;5069461;28;19928;-69
2024/03/11 02:13:44;;;;;;;;;;;10.20;89.80;;;;;;5070303;28;19916;-69
2024/03/11 02:16:11;;;;;;;;;;;10.10;89.60;;;;;;5071897;28;20015;-71
2024/03/11 02:18:37;;;;;;;;;;;10.20;89.20;;;;;;5070269;28;20136;-69
2024/03/11 02:21:03;;;;;;;;;;;10.20;89.60;;;;;;5069806;28;20392;-71
2024/03/11 02:23:29;;;;;;;;;;;10.20;89.60;;;;;;5071307;28;19927;-71
2024/03/11 02:25:55;;;;;;;;;;;10.20;89.40;;;;;;5070347;28;19927;-69
2024/03/11 02:28:22;;;;;;;;;;;10.30;89.40;;;;;;5069956;28;19966;-71
2024/03/11 02:30:48;;;;;;;;;;;10.30;89.30;;;;;;5052932;28;19931;-71
2024/03/11 02:33:14;;;;;;;;;;;10.30;89.20;;;;;;5053247;28;19916;-71
2024/03/11 02:35:40;;;;;;;;;;;10.30;88.50;;;;;;5070382;28;19921;-71
2024/03/11 02:38:06;;;;;;;;;;;10.40;89.00;;;;;;5070058;28;19925;-70
2024/03/11 02:40:37;;;;;;;;;;;10.30;88.40;;;;;;5070969;28;20423;-71
2024/03/11 02:43:09;;;;;;;;;;;10.30;88.50;;;;;;5071807;28;19916;-71
2024/03/11 02:45:35;;;;;;;;;;;10.30;89.10;;;;;;5075170;28;20152;-69
2024/03/11 02:48:01;;;;;;;;;;;10.30;89.30;;;;;;5056637;28;20396;-68
2024/03/11 02:50:27;;;;;;;;;;;10.30;89.20;;;;;;5072885;28;19924;-71
2024/03/11 02:52:53;;;;;;;;;;;10.30;89.20;;;;;;5073350;28;19962;-71
2024/03/11 02:55:21;;;;;;;;;;;10.30;88.50;;;;;;5074854;28;19916;-69
2024/03/11 02:57:48;;;;;;;;;;;10.40;88.90;;;;;;5056727;28;20317;-69
2024/03/11 03:00:16;;;;;;;;;;;10.30;89.10;;;;;;5072644;28;19916;-70
2024/03/11 03:02:42;;;;;;;;;;;10.40;88.80;;;;;;5056472;28;19932;-70
2024/03/11 03:05:08;;;;;;;;;;;10.40;88.70;;;;;;5072889;28;19925;-69
2024/03/11 03:10:18;;;;;;;;;;;10.40;88.50;;;;;;5072899;28;20331;-69
2024/03/11 03:12:45;;;;;;;;;;;10.40;88.70;;;;;;5073025;28;19916;-71
2024/03/11 03:15:11;;;;;;;;;;;10.40;88.70;;;;;;5074399;28;19924;-69
2024/03/11 03:17:38;;;;;;;;;;;10.30;88.20;;;;;;5073109;28;19962;-69
2024/03/11 03:20:05;;;;;;;;;;;10.40;88.80;;;;;;5072473;28;20019;-69
2024/03/11 03:22:31;;;;;;;;;;;10.40;88.70;;;;;;5073996;28;19987;-69
2024/03/11 03:24:57;;;;;;;;;;;10.40;88.50;;;;;;5072522;28;20035;-71
2024/03/11 03:27:25;;;;;;;;;;;10.40;88.40;;;;;;5073823;28;20294;-71
2024/03/11 03:29:51;;;;;;;;;;;10.40;88.40;;;;;;5074108;28;19925;-71
2024/03/11 03:32:19;;;;;;;;;;;10.50;88.50;;;;;;5073182;28;19920;-69
2024/03/11 03:34:45;;;;;;;;;;;10.50;88.50;;;;;;5056118;28;19930;-71
2024/03/11 03:37:11;;;;;;;;;;;10.40;88.40;;;;;;5073640;28;20282;-69
2024/03/11 03:39:37;;;;;;;;;;;10.40;88.50;;;;;;5072633;28;20015;-71
2024/03/11 03:42:05;;;;;;;;;;;10.40;88.50;;;;;;5073233;28;20292;-71
2024/03/11 03:44:31;;;;;;;;;;;10.40;88.10;;;;;;5072550;28;19925;-69
2024/03/11 03:46:56;;;;;;;;;;;10.30;88.90;;;;;;5073572;28;20627;-71
2024/03/11 03:49:22;;;;;;;;;;;10.30;89.00;;;;;;5071977;28;19931;-71
2024/03/11 03:51:48;;;;;;;;;;;10.30;89.00;;;;;;5073467;28;19925;-69
2024/03/11 03:54:15;;;;;;;;;;;10.30;89.00;;;;;;5071796;28;19924;-69
2024/03/11 03:56:41;;;;;;;;;;;10.30;89.00;;;;;;5072266;28;19960;-69
2024/03/11 03:59:07;;;;;;;;;;;10.40;88.10;;;;;;5073200;28;19920;-71
2024/03/11 04:01:33;;;;;;;;;;;10.30;89.00;;;;;;5072655;28;19921;-71
2024/03/11 04:03:59;;;;;;;;;;;10.30;89.00;;;;;;5073259;28;19917;-69
2024/03/11 04:06:25;;;;;;;;;;;10.30;88.90;;;;;;5073326;28;19920;-69
2024/03/11 04:08:51;;;;;;;;;;;10.30;88.80;;;;;;5073098;28;19917;-70
2024/03/11 04:11:16;;;;;;;;;;;10.30;88.60;;;;;;5072506;28;20335;-71
2024/03/11 04:13:42;;;;;;;;;;;10.30;88.40;;;;;;5073009;28;19916;-69
2024/03/11 04:16:11;;;;;;;;;;;10.30;88.20;;;;;;5054753;28;19921;-69
2024/03/11 04:18:37;;;;;;;;;;;10.30;88.40;;;;;;5072907;28;20429;-69
2024/03/11 04:21:05;;;;;;;;;;;10.30;88.40;;;;;;5070882;28;19970;-71
2024/03/11 04:23:32;;;;;;;;;;;10.30;87.70;;;;;;5071448;28;19969;-71
2024/03/11 04:26:00;;;;;;;;;;;10.30;88.40;;;;;;5071695;28;19932;-69
2024/03/11 04:28:29;;;;;;;;;;;10.20;88.50;;;;;;5072418;28;20003;-69
2024/03/11 04:30:58;;;;;;;;;;;10.30;88.40;;;;;;5072155;28;20451;-71
2024/03/11 04:33:24;;;;;;;;;;;10.40;88.20;;;;;;5071340;28;19967;-71
2024/03/11 04:35:50;;;;;;;;;;;10.40;88.10;;;;;;5071214;28;19924;-71
2024/03/11 04:38:17;;;;;;;;;;;10.40;87.90;;;;;;5071390;28;19943;-71
2024/03/11 04:40:44;;;;;;;;;;;10.40;87.30;;;;;;5071008;28;19938;-69
2024/03/11 04:43:10;;;;;;;;;;;10.40;87.70;;;;;;5071189;28;19920;-69
2024/03/11 04:45:37;;;;;;;;;;;10.40;87.80;;;;;;5072759;28;19925;-69
2024/03/11 04:48:05;;;;;;;;;;;10.40;87.60;;;;;;5071321;28;19917;-69
2024/03/11 04:50:32;;;;;;;;;;;10.40;87.50;;;;;;5070735;28;20330;-71
2024/03/11 04:53:00;;;;;;;;;;;10.50;87.60;;;;;;5072209;28;20007;-71
2024/03/11 04:55:27;;;;;;;;;;;10.40;87.60;;;;;;5072341;28;19924;-69
2024/03/11 04:57:53;;;;;;;;;;;10.40;87.50;;;;;;5054258;28;19928;-71
2024/03/11 05:00:26;;;;;;;;;;;10.50;87.40;;;;;;5071664;28;20141;-69
2024/03/11 05:02:53;;;;;;;;;;;10.40;87.30;;;;;;5070987;28;19956;-71
2024/03/11 05:05:19;;;;;;;;;;;10.40;87.30;;;;;;5053528;28;20011;-70
2024/03/11 05:07:45;;;;;;;;;;;10.50;87.50;;;;;;5072219;28;19916;-69
2024/03/11 05:10:12;;;;;;;;;;;10.40;87.40;;;;;;5071763;28;19932;-68
2024/03/11 05:12:38;;;;;;;;;;;10.50;87.40;;;;;;5072107;28;19964;-69
2024/03/11 05:15:05;;;;;;;;;;;10.40;87.30;;;;;;5072268;28;19978;-71
2024/03/11 05:17:31;;;;;;;;;;;10.40;87.40;;;;;;5070800;28;19948;-69
2024/03/11 05:19:57;;;;;;;;;;;10.40;87.50;;;;;;5072141;28;19924;-71
2024/03/11 05:22:23;;;;;;;;;;;10.40;87.60;;;;;;5071216;28;19983;-69
2024/03/11 05:24:50;;;;;;;;;;;10.30;87.60;;;;;;5072044;28;19924;-71
2024/03/11 05:27:17;;;;;;;;;;;10.40;87.50;;;;;;5071696;28;19962;-71
2024/03/11 05:29:43;;;;;;;;;;;10.40;87.50;;;;;;5071705;28;20335;-70
2024/03/11 05:32:09;;;;;;;;;;;10.40;87.60;;;;;;5069716;28;19924;-69
2024/03/11 05:34:35;;;;;;;;;;;10.40;87.40;;;;;;5070298;28;19964;-69
2024/03/11 05:37:03;;;;;;;;;;;10.40;87.20;;;;;;5070204;28;19923;-69
2024/03/11 05:39:29;;;;;;;;;;;10.40;86.70;;;;;;5070622;28;20328;-70
2024/03/11 05:41:55;;;;;;;;;;;10.40;87.10;;;;;;5069864;28;19920;-69
2024/03/11 05:44:20;;;;;;;;;;;10.40;87.30;;;;;;5053245;28;20023;-71
2024/03/11 05:46:46;;;;;;;;;;;10.40;87.30;;;;;;5071734;28;19920;-69
2024/03/11 05:51:56;;;;;;;;;;;10.40;87.40;;;;;;5071216;28;19927;-69
2024/03/11 05:54:24;;;;;;;;;;;10.40;87.30;;;;;;5069430;28;19925;-69
2024/03/11 05:57:09;;;;;;;;;;;10.40;87.00;;;;;;5070006;28;19962;-71
2024/03/11 05:59:36;;;;;;;;;;;10.40;86.90;;;;;;5052996;28;19925;-71
2024/03/11 06:02:02;;;;;;;;;;;10.40;87.10;;;;;;5069279;28;19995;-69
2024/03/11 06:04:28;;;;;;;;;;;10.40;86.90;;;;;;5069868;28;19925;-70
2024/03/11 06:06:54;;;;;;;;;;;10.40;86.80;;;;;;5070703;28;19921;-71
2024/03/11 06:09:21;;;;;;;;;;;10.50;86.70;;;;;;5069755;28;19931;-69
2024/03/11 06:11:48;;;;;;;;;;;10.50;86.10;;;;;;5070976;28;19932;-69
2024/03/11 06:14:15;;;;;;;;;;;10.60;86.40;;;;;;5070970;28;19924;-69
2024/03/11 06:16:42;;;;;;;;;;;10.60;86.40;;;;;;5054513;28;19917;-71
2024/03/11 06:19:10;;;;;;;;;;;10.60;86.30;;;;;;5074727;28;20305;-71
2024/03/11 06:21:37;;;;;;;;;;;10.60;86.20;;;;;;5073147;28;19967;-69
2024/03/11 06:24:05;;;;;;;;;;;10.60;86.10;;;;;;5056777;28;19962;-68
2024/03/11 06:26:34;;;;;;;;;;;10.60;86.00;;;;;;5057006;28;19948;-70
2024/03/11 06:29:13;;;;;;;;;;;10.70;86.00;;;;;;5073424;28;19927;-71
2024/03/11 06:31:39;;;;;;;;;;;10.80;85.90;;;;;;5072888;28;19932;-71
2024/03/11 06:34:26;;;;;;;;;;;10.80;85.90;;;;;;5074640;28;19984;-69
2024/03/11 06:36:53;;;;;;;;;;;10.80;85.60;;;;;;5073309;28;19921;-71
2024/03/11 06:39:19;;;;;;;;;;;10.80;85.80;;;;;;5073307;28;19927;-70
2024/03/11 06:41:44;;;;;;;;;;;10.90;85.30;;;;;;5074078;28;19964;-70
2024/03/11 06:44:11;;;;;;;;;;;10.90;85.80;;;;;;5073097;28;20031;-69
2024/03/11 06:46:37;;;;;;;;;;;10.90;85.50;;;;;;5073011;28;19921;-71
2024/03/11 06:49:04;;;;;;;;;;;10.90;85.70;;;;;;5074209;28;19917;-71
2024/03/11 06:51:30;;;;;;;;;;;10.90;85.70;;;;;;5072481;28;20369;-69
2024/03/11 06:53:59;;;;;;;;;;;10.90;86.00;;;;;;5073104;28;20388;-69
2024/03/11 06:56:27;;;;;;;;;;;10.90;85.80;;;;;;5073122;28;19966;-71
2024/03/11 06:58:53;;;;;;;;;;;10.90;85.90;;;;;;5074163;28;20408;-69
2024/03/11 07:01:19;;;;;;;;;;;11.00;85.20;;;;;;5073740;28;19931;-70
2024/03/11 07:03:45;;;;;;;;;;;11.00;85.00;;;;;;5072847;28;19916;-69
2024/03/11 07:06:11;;;;;;;;;;;11.00;85.70;;;;;;5074128;28;20047;-68
2024/03/11 07:08:38;;;;;;;;;;;11.00;85.00;;;;;;5074063;28;19916;-71
2024/03/11 07:11:04;;;;;;;;;;;11.00;85.40;;;;;;5073804;28;19978;-68
2024/03/11 07:13:35;;;;;;;;;;;11.10;85.30;;;;;;5073952;28;20359;-71
2024/03/11 07:16:05;;;;;;;;;;;11.10;85.20;;;;;;5072670;28;19927;-71
2024/03/11 07:18:31;;;;;;;;;;;11.20;85.20;;;;;;5072913;28;19931;-69
2024/03/11 07:20:59;;;;;;;;;;;11.20;84.60;;;;;;5072099;28;19924;-70
2024/03/11 07:23:48;;;;;;;;;;;11.20;84.90;;;;;;5072458;28;20002;-69
2024/03/11 07:26:14;;;;;;;;;;;11.30;84.80;;;;;;5074025;28;19978;-69
2024/03/11 07:28:40;;;;;;;;;;;11.30;84.70;;;;;;5054802;28;19950;-71
2024/03/11 07:31:06;;;;;;;;;;;11.30;84.90;;;;;;5054936;28;19932;-71
2024/03/11 07:33:32;;;;;;;;;;;11.30;84.90;;;;;;5073520;28;19962;-69
2024/03/11 07:35:58;;;;;;;;;;;11.30;84.70;;;;;;5072363;28;20417;-69
2024/03/11 07:38:25;;;;;;;;;;;11.30;84.60;;;;;;5073360;28;19924;-71
2024/03/11 07:40:51;;;;;;;;;;;11.40;84.60;;;;;;5073169;28;19925;-69
2024/03/11 07:43:17;;;;;;;;;;;11.40;84.50;;;;;;5073301;28;20446;-71
2024/03/11 07:45:43;;;;;;;;;;;11.40;84.40;;;;;;5072333;28;19925;-69
2024/03/11 07:48:10;;;;;;;;;;;11.40;83.60;;;;;;5073130;28;19916;-71
2024/03/11 07:50:37;;;;;;;;;;;11.40;83.60;;;;;;5071520;28;19928;-70
2024/03/11 07:53:04;;;;;;;;;;;11.50;84.10;;;;;;5073382;28;19966;-69
2024/03/11 07:55:29;;;;;;;;;;;11.50;83.50;;;;;;5072082;28;19924;-68
2024/03/11 07:57:55;;;;;;;;;;;11.50;84.00;;;;;;5073081;28;19965;-69
2024/03/11 08:00:29;;;;;;;;;;;11.50;83.40;;;;;;5071203;28;19920;-71
2024/03/11 08:03:15;;;;;;;;;;;11.60;83.70;;;;;;5071831;28;19970;-71
2024/03/11 08:05:40;;;;;;;;;;;11.60;83.60;;;;;;5071768;28;19932;-71
2024/03/11 08:08:08;;;;;;;;;;;11.60;83.60;;;;;;5072850;28;20266;-71
2024/03/11 08:10:34;;;;;;;;;;;11.60;83.30;;;;;;5071054;28;20042;-71
2024/03/11 08:13:00;;;;;;;;;;;11.70;83.50;;;;;;5071447;28;19920;-71
2024/03/11 08:15:26;;;;;;;;;;;11.70;83.40;;;;;;5071664;28;20276;-71
2024/03/11 08:17:52;;;;;;;;;;;11.70;83.50;;;;;;5072793;28;20397;-71
2024/03/11 08:20:24;;;;;;;;;;;11.70;83.40;;;;;;5070991;28;19928;-69
2024/03/11 08:25:36;;;;;;;;;;;11.70;83.40;;;;;;5071784;28;20020;-69
2024/03/11 08:28:01;;;;;;;;;;;11.70;83.50;;;;;;5071281;28;19920;-69
2024/03/11 08:30:27;;;;;;;;;;;11.70;83.60;;;;;;5070534;28;19931;-69
2024/03/11 08:32:54;;;;;;;;;;;11.60;83.50;;;;;;5072268;28;20399;-69
2024/03/11 08:35:23;;;;;;;;;;;11.60;83.50;;;;;;5071095;28;19920;-69
2024/03/11 08:37:49;;;;;;;;;;;11.60;83.40;;;;;;5072246;28;19927;-69
2024/03/11 08:40:16;;;;;;;;;;;11.60;82.90;;;;;;5071924;28;19920;-69
2024/03/11 08:42:47;;;;;;;;;;;11.60;83.40;;;;;;5071004;28;20388;-70
2024/03/11 08:45:13;;;;;;;;;;;11.60;83.30;;;;;;5072214;28;19982;-71
2024/03/11 08:47:43;;;;;;;;;;;11.70;83.50;;;;;;5070923;28;20374;-70
2024/03/11 08:50:10;;;;;;;;;;;11.70;82.80;;;;;;5071580;28;19931;-69
2024/03/11 08:52:36;;;;;;;;;;;11.70;82.80;;;;;;5070846;28;20427;-69
2024/03/11 08:55:05;;;;;;;;;;;11.70;82.80;;;;;;5072305;28;20492;-69
2024/03/11 08:57:32;;;;;;;;;;;11.70;83.20;;;;;;5072125;28;20015;-69
2024/03/11 09:00:00;;;;;;;;;;;11.70;83.10;;;;;;5072155;28;20326;-70
2024/03/11 09:02:27;;;;;;;;;;;11.70;83.20;;;;;;5071228;28;20309;-71
2024/03/11 09:04:53;;;;;;;;;;;11.70;83.20;;;;;;5071924;28;19920;-70
2024/03/11 09:07:20;;;;;;;;;;;11.70;82.70;;;;;;5071820;28;19999;-71
2024/03/11 09:09:46;;;;;;;;;;;11.70;83.40;;;;;;5070405;28;19931;-69
2024/03/11 09:12:14;;;;;;;;;;;11.60;83.40;;;;;;5052865;28;21272;-69
2024/03/11 09:14:40;;;;;;;;;;;11.60;83.30;;;;;;5071867;28;20423;-68
2024/03/11 09:17:06;;;;;;;;;;;11.60;83.40;;;;;;5071805;28;19917;-71
2024/03/11 09:19:32;;;;;;;;;;;11.60;83.30;;;;;;5071492;28;20437;-68
2024/03/11 09:21:58;;;;;;;;;;;11.60;83.30;;;;;;5069865;28;20194;-71
2024/03/11 09:24:25;;;;;;;;;;;11.60;83.10;;;;;;5071623;28;19929;-71
2024/03/11 09:26:51;;;;;;;;;;;11.50;83.10;;;;;;5070307;28;19942;-70
2024/03/11 09:29:18;;;;;;;;;;;11.50;83.20;;;;;;5070074;28;20385;-69
2024/03/11 09:34:30;;;;;;;;;;;11.40;83.00;;;;;;5070460;28;19974;-69
2024/03/11 09:36:55;;;;;;;;;;;11.50;83.00;;;;;;5070312;28;19947;-71
2024/03/11 09:39:22;;;;;;;;;;;11.50;82.90;;;;;;5070113;28;20023;-69
2024/03/11 09:41:50;;;;;;;;;;;11.50;82.80;;;;;;5069656;28;19970;-69
2024/03/11 09:44:18;;;;;;;;;;;11.50;82.30;;;;;;5070282;28;19974;-70
2024/03/11 09:47:04;;;;;;;;;;;11.60;82.50;;;;;;5070152;28;20431;-69
2024/03/11 09:49:31;;;;;;;;;;;11.60;82.50;;;;;;5069974;28;19999;-69
2024/03/11 09:52:01;;;;;;;;;;;11.60;82.60;;;;;;5071472;28;19974;-71
2024/03/11 09:54:28;;;;;;;;;;;11.60;82.30;;;;;;5074247;28;19924;-71
2024/03/11 09:56:55;;;;;;;;;;;11.60;82.50;;;;;;5075759;28;19920;-71
2024/03/11 09:59:25;;;;;;;;;;;11.60;82.30;;;;;;5075252;28;19924;-69
2024/03/11 10:01:52;;;;;;;;;;;11.60;82.70;;;;;;5074825;28;19967;-71
2024/03/11 10:04:37;;;;;;;;;;;11.50;83.10;;;;;;5073904;28;20440;-70
2024/03/11 10:07:09;;;;;;;;;;;11.50;83.70;;;;;;5057127;28;20452;-71
2024/03/11 10:09:44;;;;;;;;;;;11.50;83.50;;;;;;5073878;28;20584;-69
2024/03/11 10:12:12;;;;;;;;;;;11.60;83.50;;;;;;5073342;28;20437;-71
2024/03/11 10:14:39;;;;;;;;;;;11.60;83.20;;;;;;5073753;28;20012;-71
2024/03/11 10:17:26;;;;;;;;;;;11.60;83.10;;;;;;5073703;28;19999;-71
2024/03/11 10:19:54;;;;;;;;;;;11.70;83.10;;;;;;5073996;28;20270;-71
2024/03/11 10:22:39;;;;;;;;;;;11.70;83.00;;;;;;5073048;28;20012;-69
2024/03/11 10:25:08;;;;;;;;;;;11.70;83.10;;;;;;5074984;28;20285;-69
2024/03/11 10:27:40;;;;;;;;;;;11.70;83.10;;;;;;5073485;28;19920;-69
2024/03/11 10:30:26;;;;;;;;;;;11.70;83.10;;;;;;5073086;28;19920;-69
2024/03/11 10:32:55;;;;;;;;;;;11.70;82.40;;;;;;5073263;28;19916;-73
2024/03/11 10:35:43;;;;;;;;;;;11.70;81.70;;;;;;5074911;28;20385;-70
2024/03/11 10:40:55;;;;;;;;;;;11.80;82.10;;;;;;5073041;28;19931;-73
2024/03/11 10:43:24;;;;;;;;;;;11.80;82.00;;;;;;5074593;28;19952;-68
2024/03/11 10:45:50;;;;;;;;;;;11.80;81.60;;;;;;5073445;28;19920;-70
2024/03/11 10:48:16;;;;;;;;;;;11.80;79.90;;;;;;5073265;28;19963;-69
2024/03/11 10:50:42;;;;;;;;;;;11.80;80.40;;;;;;5072556;28;20339;-68
2024/03/11 10:53:21;;;;;;;;;;;11.80;79.50;;;;;;5073061;28;19983;-69
2024/03/11 10:56:07;;;;;;;;;;;11.80;80.10;;;;;;5074547;28;19963;-71
2024/03/11 10:58:33;;;;;;;;;;;11.80;80.30;;;;;;5072904;28;19929;-71
2024/03/11 11:01:03;;;;;;;;;;;11.80;80.50;;;;;;5055765;28;19924;-71
2024/03/11 11:03:31;;;;;;;;;;;11.80;80.50;;;;;;5071584;28;19927;-70
2024/03/11 11:06:15;;;;;;;;;;;11.80;80.50;;;;;;5074004;28;19944;-69
2024/03/11 11:08:42;;;;;;;;;;;11.80;80.60;;;;;;5072973;28;20436;-70
2024/03/11 11:11:17;;;;;;;;;;;11.70;80.60;;;;;;5072135;28;19925;-69
2024/03/11 11:14:02;;;;;;;;;;;11.70;80.70;;;;;;5072828;28;20011;-70
2024/03/11 11:16:29;;;;;;;;;;;11.70;80.60;;;;;;5073851;28;19975;-72
2024/03/11 11:18:56;;;;;;;;;;;11.60;80.50;;;;;;5072297;28;19939;-72
2024/03/11 11:21:23;;;;;;;;;;;11.60;80.30;;;;;;5073369;28;19932;-72
2024/03/11 11:23:51;;;;;;;;;;;11.60;80.10;;;;;;5055738;28;19924;-71
2024/03/11 11:26:47;;;;;;;;;;;11.70;80.30;;;;;;5074270;28;19927;-73
2024/03/11 11:29:13;;;;;;;;;;;11.60;79.80;;;;;;5072336;28;19938;-69
2024/03/11 11:31:38;;;;;;;;;;;11.60;79.60;;;;;;5054964;28;19921;-68
2024/03/11 11:34:07;;;;;;;;;;;11.60;79.20;;;;;;5072186;28;19932;-70
2024/03/11 11:36:51;;;;;;;;;;;11.50;78.40;;;;;;5072234;28;19927;-69
2024/03/11 11:39:17;;;;;;;;;;;11.50;78.70;;;;;;5073477;28;19920;-72
2024/03/11 11:41:45;;;;;;;;;;;11.40;78.30;;;;;;5073230;28;20338;-71
2024/03/11 11:44:31;;;;;;;;;;;11.30;77.90;;;;;;5055516;28;20456;-72
2024/03/11 11:47:19;;;;;;;;;;;11.40;77.90;;;;;;5073686;28;19952;-71
2024/03/11 11:49:45;;;;;;;;;;;11.30;78.20;;;;;;5071970;28;19986;-69
2024/03/11 11:52:14;;;;;;;;;;;11.30;79.20;;;;;;5054619;28;19930;-71
2024/03/11 11:54:40;;;;;;;;;;;11.20;77.50;;;;;;5071980;28;20018;-71
2024/03/11 12:02:44;;;;;;;;;;;11.20;78.50;;;;;;5072571;28;19928;-72
2024/03/11 12:05:15;;;;;;;;;;;11.20;78.50;;;;;;5073004;28;19928;-71
2024/03/11 12:07:43;;;;;;;;;;;11.20;78.60;;;;;;5073141;28;19928;-69
2024/03/11 12:12:55;;;;;;;;;;;11.20;78.40;;;;;;5071962;28;19917;-69
2024/03/11 12:15:34;;;;;;;;;;;11.20;78.70;;;;;;5072656;28;19928;-71
2024/03/11 12:18:00;;;;;;;;;;;11.20;78.70;;;;;;5072649;28;19916;-70
2024/03/11 12:23:13;;;;;;;;;;;11.10;78.30;;;;;;5071424;28;19971;-71
2024/03/11 12:25:40;;;;;;;;;;;11.10;79.40;;;;;;5072907;28;19928;-69
2024/03/11 12:28:14;;;;;;;;;;;11.10;79.40;;;;;;5054599;28;20011;-70
2024/03/11 12:30:50;;;;;;;;;;;11.10;79.30;;;;;;5072089;28;20636;-73
2024/03/11 12:33:17;;;;;;;;;;;11.00;79.40;;;;;;5072676;28;20442;-69
2024/03/11 12:35:43;;;;;;;;;;;11.10;79.70;;;;;;5071195;28;19920;-71
2024/03/11 12:38:10;;;;;;;;;;;11.00;78.80;;;;;;5071076;28;19942;-71
2024/03/11 12:40:42;;;;;;;;;;;11.10;78.90;;;;;;5070379;28;19931;-69
2024/03/11 12:43:30;;;;;;;;;;;11.10;78.20;;;;;;5072185;28;19942;-70
2024/03/11 12:46:17;;;;;;;;;;;11.10;78.50;;;;;;5071214;28;19962;-69
2024/03/11 12:48:43;;;;;;;;;;;11.10;78.50;;;;;;5072103;28;19924;-70
2024/03/11 12:51:09;;;;;;;;;;;11.20;78.60;;;;;;5070013;28;19924;-69
2024/03/11 12:53:37;;;;;;;;;;;11.10;78.70;;;;;;5054188;28;19961;-71
2024/03/11 12:56:22;;;;;;;;;;;11.10;78.70;;;;;;5071046;28;20438;-71
2024/03/11 12:58:49;;;;;;;;;;;11.10;78.40;;;;;;5072286;28;20284;-71
2024/03/11 13:01:16;;;;;;;;;;;11.10;78.60;;;;;;5071512;28;19924;-70
2024/03/11 13:03:43;;;;;;;;;;;11.10;78.30;;;;;;5054278;28;19916;-70
2024/03/11 13:06:16;;;;;;;;;;;11.20;78.30;;;;;;5071773;28;19928;-69
2024/03/11 13:08:42;;;;;;;;;;;11.20;77.90;;;;;;5070669;28;19921;-70
2024/03/11 13:13:54;;;;;;;;;;;11.20;78.00;;;;;;5071937;28;20504;-69
2024/03/11 13:16:20;;;;;;;;;;;11.20;78.00;;;;;;5071751;28;20281;-69
2024/03/11 13:18:45;;;;;;;;;;;11.30;77.90;;;;;;5070305;28;19917;-70
2024/03/11 13:21:11;;;;;;;;;;;11.30;78.20;;;;;;5069763;28;19975;-71
2024/03/11 13:23:38;;;;;;;;;;;11.20;77.80;;;;;;5053728;28;19916;-69
2024/03/11 13:28:49;;;;;;;;;;;11.20;77.80;;;;;;5071179;28;19935;-70
2024/03/11 13:31:15;;;;;;;;;;;11.20;77.70;;;;;;5071036;28;20373;-70
2024/03/11 13:33:41;;;;;;;;;;;11.10;78.00;;;;;;5070336;28;19921;-70
2024/03/11 13:36:11;;;;;;;;;;;11.10;78.10;;;;;;5071877;28;19921;-69
2024/03/11 13:38:37;;;;;;;;;;;11.10;78.20;;;;;;5071697;28;19921;-72
2024/03/11 13:41:03;;;;;;;;;;;11.20;78.20;;;;;;5069913;28;19925;-71
2024/03/11 13:43:32;;;;;;;;;;;11.20;78.20;;;;;;5071523;28;19974;-71
2024/03/11 13:45:58;;;;;;;;;;;11.20;78.40;;;;;;5072060;28;19917;-73
2024/03/11 13:48:24;;;;;;;;;;;11.20;78.00;;;;;;5070211;28;19928;-69
2024/03/11 13:50:51;;;;;;;;;;;11.20;77.60;;;;;;5071004;28;19931;-71
2024/03/11 13:53:17;;;;;;;;;;;11.20;77.50;;;;;;5070081;28;19924;-69
2024/03/11 13:55:44;;;;;;;;;;;11.20;77.70;;;;;;5071742;28;19964;-71
2024/03/11 13:58:30;;;;;;;;;;;11.20;77.50;;;;;;5071484;28;20352;-71
2024/03/11 14:00:56;;;;;;;;;;;11.10;77.20;;;;;;5071060;28;19946;-71
2024/03/11 14:03:22;;;;;;;;;;;11.10;77.70;;;;;;5071137;28;20381;-70
2024/03/11 14:11:20;;;;;;;;;;;10.90;76.40;;;;;;5069408;28;20274;-69
2024/03/11 14:13:46;;;;;;;;;;;10.90;76.70;;;;;;5053108;28;20377;-70
2024/03/11 14:16:13;;;;;;;;;;;10.90;77.40;;;;;;5070075;28;19934;-69
2024/03/11 14:18:39;;;;;;;;;;;10.90;76.90;;;;;;5071031;28;19966;-69
2024/03/11 14:21:08;;;;;;;;;;;10.80;77.30;;;;;;5070774;28;19924;-70
2024/03/11 14:23:52;;;;;;;;;;;10.90;77.50;;;;;;5071116;28;20011;-69
2024/03/11 14:26:18;;;;;;;;;;;10.90;77.90;;;;;;5071165;28;20007;-70
2024/03/11 14:28:46;;;;;;;;;;;10.90;77.90;;;;;;5070963;28;20042;-69
2024/03/11 14:31:13;;;;;;;;;;;11.00;78.30;;;;;;5069051;28;19939;-70
2024/03/11 14:33:43;;;;;;;;;;;11.00;78.50;;;;;;5071285;28;20297;-71
2024/03/11 14:36:10;;;;;;;;;;;10.90;78.30;;;;;;5053386;28;19963;-69
2024/03/11 14:38:38;;;;;;;;;;;10.90;77.90;;;;;;5072311;28;19917;-71
2024/03/11 14:41:11;;;;;;;;;;;10.80;78.20;;;;;;5074138;28;19924;-69
2024/03/11 14:43:55;;;;;;;;;;;10.80;78.00;;;;;;5073400;28;20296;-69
2024/03/11 14:46:21;;;;;;;;;;;10.80;78.40;;;;;;5074469;28;19982;-71
2024/03/11 14:48:48;;;;;;;;;;;10.80;79.10;;;;;;5073231;28;19917;-69
2024/03/11 14:51:16;;;;;;;;;;;10.70;79.20;;;;;;5055899;28;19924;-70
2024/03/11 14:53:45;;;;;;;;;;;10.70;79.60;;;;;;5073154;28;19916;-71
2024/03/11 14:56:11;;;;;;;;;;;10.70;80.20;;;;;;5073113;28;20007;-71
2024/03/11 14:58:38;;;;;;;;;;;10.60;80.20;;;;;;5072947;28;19916;-69
2024/03/11 15:01:04;;;;;;;;;;;10.60;80.80;;;;;;5063190;28;19932;-68